Tuttle, Oklahoma
Current Conditions -  °F | °C
As of 8:55 AM on Wednesday 26 Nov 2014 (Local Time) from KRCE Reporting Station
Clear Clear  
Wind Chill:   Ceiling: Unl
Heat Index:   Visibility: NA
Dew Point:   Wind: 18mph
Humidity: 70%   Direction: 340°NNW
Pressure: 30.16"   Gusts: 24mph
Location:  35.29°N, 97.81°W
Report Text: KRCE 261455Z AUTO 34016G21KT CLR 06/01 A3016 RMK AO2
Loading
Personal Weather Stations






























Interactive Weather Map New forecast layout! Learn more

10-Day Weather Forecast

Advertisements
Track Severe Weather on mobile